Time;durP1;ratioP1;P1;durP2;ratioP2;P2;SDS_P1;SDS_P2;PMS_P1;PMS_P2;Temp;Humidity;BMP_temperature;BMP_pressure;BME280_temperature;BME280_humidity;BME280_pressure;Samples;Min_cycle;Max_cycle;Signal;HPM_P1;HPM_P2
2023/08/27 00:01:12;;;;;;;1999.90;999.90;;;17.10;99.90;;;;;;5031867;28;20166;-73
2023/08/27 00:03:38;;;;;;;1999.90;999.90;;;17.10;99.90;;;;;;5032202;28;20182;-73
2023/08/27 00:06:03;;;;;;;1999.90;999.90;;;17.20;99.90;;;;;;5032182;28;20705;-73
2023/08/27 00:08:29;;;;;;;1999.90;999.90;;;17.20;99.90;;;;;;5032037;28;20197;-73
2023/08/27 00:10:58;;;;;;;1999.90;999.90;;;17.10;99.90;;;;;;5031845;28;20930;-73
2023/08/27 00:13:24;;;;;;;1999.90;999.90;;;17.10;99.90;;;;;;5032118;28;20640;-73
2023/08/27 00:15:49;;;;;;;1999.90;999.90;;;17.10;99.90;;;;;;5031898;28;20486;-73
2023/08/27 00:18:15;;;;;;;1999.90;999.90;;;17.10;99.90;;;;;;5031878;28;20189;-73
2023/08/27 00:20:41;;;;;;;1999.90;999.90;;;17.10;99.90;;;;;;5031881;28;20252;-74
2023/08/27 00:23:08;;;;;;;1999.90;999.90;;;17.10;99.90;;;;;;5031688;28;20174;-73
2023/08/27 00:25:34;;;;;;;1999.90;999.90;;;17.10;99.90;;;;;;5031847;28;20774;-73
2023/08/27 00:28:00;;;;;;;1999.90;999.90;;;17.20;99.90;;;;;;5031734;28;20414;-73
2023/08/27 00:30:25;;;;;;;1999.90;999.90;;;17.20;99.90;;;;;;5031764;28;20443;-73
2023/08/27 00:32:51;;;;;;;1999.90;999.90;;;17.20;99.90;;;;;;5031464;28;20708;-73
2023/08/27 00:35:16;;;;;;;1999.90;999.90;;;17.20;99.90;;;;;;5031879;28;20165;-73
2023/08/27 00:37:42;;;;;;;1999.90;999.90;;;17.20;99.90;;;;;;5031866;28;20164;-73
2023/08/27 00:40:08;;;;;;;1999.90;999.90;;;17.20;99.90;;;;;;5031775;28;20188;-73
2023/08/27 00:42:34;;;;;;;1999.90;999.90;;;17.20;99.90;;;;;;5031469;28;20179;-73
2023/08/27 00:44:59;;;;;;;1999.90;999.90;;;17.20;99.90;;;;;;5031667;28;20417;-74
2023/08/27 00:47:25;;;;;;;1999.90;999.90;;;17.20;99.90;;;;;;5031737;28;20175;-74
2023/08/27 00:49:51;;;;;;;1999.90;999.90;;;17.00;99.90;;;;;;5031609;28;20249;-73
2023/08/27 00:52:19;;;;;;;1999.90;999.90;;;16.90;99.90;;;;;;5031317;28;20470;-76
2023/08/27 00:54:46;;;;;;;1999.90;999.90;;;16.80;99.90;;;;;;5034389;28;20165;-76
2023/08/27 00:57:12;;;;;;;1999.90;999.90;;;16.80;99.90;;;;;;5035525;28;20409;-75
2023/08/27 00:59:38;;;;;;;1999.90;999.90;;;16.70;99.90;;;;;;5035334;28;20426;-75
2023/08/27 01:02:04;;;;;;;1999.90;999.90;;;16.60;99.90;;;;;;5035047;28;20421;-76
2023/08/27 01:04:30;;;;;;;1999.90;999.90;;;16.60;99.90;;;;;;5035278;28;20406;-76
2023/08/27 01:07:04;;;;;;;1999.90;999.90;;;16.50;99.90;;;;;;5035249;28;20516;-75
2023/08/27 01:09:43;;;;;;;1999.90;999.90;;;16.40;99.90;;;;;;5034652;28;20434;-75
2023/08/27 01:12:29;;;;;;;1999.90;999.90;;;16.40;99.90;;;;;;5034877;28;20508;-76
2023/08/27 01:14:58;;;;;;;1999.90;999.90;;;16.40;99.90;;;;;;5035215;28;20449;-76
2023/08/27 01:17:24;;;;;;;1999.90;999.90;;;16.30;99.90;;;;;;5035204;28;20406;-76
2023/08/27 01:19:49;;;;;;;1999.90;999.90;;;16.30;99.90;;;;;;5034976;28;20442;-76
2023/08/27 01:22:16;;;;;;;1999.90;999.90;;;16.30;99.90;;;;;;5034821;28;20472;-76
2023/08/27 01:24:42;;;;;;;1999.90;999.90;;;16.30;99.90;;;;;;5035008;28;20195;-76
2023/08/27 01:27:11;;;;;;;1999.90;999.90;;;16.30;99.90;;;;;;5034998;28;20445;-76
2023/08/27 01:29:46;;;;;;;1999.90;999.90;;;16.30;99.90;;;;;;5034745;28;20231;-76
2023/08/27 01:32:19;;;;;;;1999.90;999.90;;;16.30;99.90;;;;;;5034594;28;20477;-76
2023/08/27 01:34:45;;;;;;;1999.90;999.90;;;16.40;99.90;;;;;;5034804;28;20985;-75
2023/08/27 01:37:14;;;;;;;1999.90;999.90;;;16.50;99.90;;;;;;5034779;28;20925;-75
2023/08/27 01:39:42;;;;;;;1999.90;999.90;;;16.50;99.90;;;;;;5034670;28;20974;-76
2023/08/27 01:42:08;;;;;;;1999.90;999.90;;;16.40;99.90;;;;;;5035389;28;20435;-78
2023/08/27 01:44:34;;;;;;;1999.90;999.90;;;16.40;99.90;;;;;;5042169;28;20783;-78
2023/08/27 01:47:00;;;;;;;1999.90;999.90;;;16.30;99.90;;;;;;5041937;28;20410;-77
2023/08/27 01:49:25;;;;;;;1999.90;999.90;;;16.30;99.90;;;;;;5039816;28;20198;-77
2023/08/27 01:51:51;;;;;;;1999.90;999.90;;;16.30;99.90;;;;;;5034913;28;20197;-76
2023/08/27 01:54:17;;;;;;;1999.90;999.90;;;16.20;99.90;;;;;;5035588;28;20226;-77
2023/08/27 01:56:43;;;;;;;1999.90;999.90;;;16.20;99.90;;;;;;5035344;28;20166;-76
2023/08/27 01:59:08;;;;;;;1999.90;999.90;;;16.10;99.90;;;;;;5035124;28;20425;-77
2023/08/27 02:01:34;;;;;;;1999.90;999.90;;;16.10;99.90;;;;;;5035049;28;20174;-77
2023/08/27 02:04:00;;;;;;;1999.90;999.90;;;16.10;99.90;;;;;;5035206;28;20190;-77
2023/08/27 02:06:25;;;;;;;1999.90;999.90;;;16.10;99.90;;;;;;5034524;28;20668;-76
2023/08/27 02:08:51;;;;;;;1999.90;999.90;;;16.10;99.90;;;;;;5035167;28;20291;-77
2023/08/27 02:11:16;;;;;;;1999.90;999.90;;;16.10;99.90;;;;;;5035401;28;20174;-78
2023/08/27 02:13:42;;;;;;;1999.90;999.90;;;16.00;99.90;;;;;;5035947;28;20177;-77
2023/08/27 02:16:08;;;;;;;1999.90;999.90;;;16.10;99.90;;;;;;5034886;28;20213;-77
2023/08/27 02:18:33;;;;;;;1999.90;999.90;;;16.00;99.90;;;;;;5034717;28;20183;-77
2023/08/27 02:20:59;;;;;;;1999.90;999.90;;;16.10;99.90;;;;;;5034347;28;20183;-77
2023/08/27 02:23:24;;;;;;;1999.90;999.90;;;16.10;99.90;;;;;;5034339;28;20182;-77
2023/08/27 02:25:50;;;;;;;1999.90;999.90;;;16.20;99.90;;;;;;5034440;28;20253;-77
2023/08/27 02:28:16;;;;;;;1999.90;999.90;;;16.20;99.90;;;;;;5034085;28;20200;-77
2023/08/27 02:30:50;;;;;;;1999.90;999.90;;;16.20;99.90;;;;;;5034697;28;20257;-77
2023/08/27 02:33:16;;;;;;;1999.90;999.90;;;16.20;99.90;;;;;;5034262;28;20224;-77
2023/08/27 02:35:41;;;;;;;1999.90;999.90;;;16.10;99.90;;;;;;5033982;28;20405;-77
2023/08/27 02:38:07;;;;;;;1999.90;999.90;;;16.10;99.90;;;;;;5033815;28;20227;-77
2023/08/27 02:40:32;;;;;;;1999.90;999.90;;;16.10;99.90;;;;;;5034051;28;20179;-77
2023/08/27 02:42:58;;;;;;;1999.90;999.90;;;16.00;99.90;;;;;;5033361;28;20168;-77
2023/08/27 02:45:23;;;;;;;1999.90;999.90;;;15.90;99.90;;;;;;5033730;28;20168;-77
2023/08/27 02:47:49;;;;;;;1999.90;999.90;;;15.90;99.90;;;;;;5033680;28;20209;-77
2023/08/27 02:50:15;;;;;;;1999.90;999.90;;;15.80;99.90;;;;;;5033499;28;20202;-76
2023/08/27 02:52:41;;;;;;;1999.90;999.90;;;15.90;99.90;;;;;;5033260;28;20218;-77
2023/08/27 02:55:07;;;;;;;1999.90;999.90;;;15.90;99.90;;;;;;5033544;28;20166;-76
2023/08/27 02:57:32;;;;;;;1999.90;999.90;;;15.90;99.90;;;;;;5033628;28;20414;-77
2023/08/27 02:59:58;;;;;;;1999.90;999.90;;;16.00;99.90;;;;;;5033611;28;20426;-77
2023/08/27 03:02:26;;;;;;;1999.90;999.90;;;16.10;99.90;;;;;;5033492;28;20247;-77
2023/08/27 03:04:51;;;;;;;1999.90;999.90;;;16.10;99.90;;;;;;5033717;28;20173;-77
2023/08/27 03:07:17;;;;;;;1999.90;999.90;;;16.20;99.90;;;;;;5033502;28;20414;-76
2023/08/27 03:09:42;;;;;;;1999.90;999.90;;;16.20;99.90;;;;;;5033920;28;20267;-77
2023/08/27 03:12:08;;;;;;;1999.90;999.90;;;16.20;99.90;;;;;;5032926;28;20659;-77
2023/08/27 03:14:33;;;;;;;1999.90;999.90;;;16.20;99.90;;;;;;5033268;28;20180;-77
2023/08/27 03:16:59;;;;;;;1999.90;999.90;;;16.20;99.90;;;;;;5032266;28;20179;-75
2023/08/27 03:19:25;;;;;;;1999.90;999.90;;;16.20;99.90;;;;;;5032984;28;20227;-77
2023/08/27 03:21:50;;;;;;;1999.90;999.90;;;16.20;99.90;;;;;;5032666;28;20172;-77
2023/08/27 03:24:16;;;;;;;1999.90;999.90;;;16.30;99.90;;;;;;5033108;28;20207;-77
2023/08/27 03:26:41;;;;;;;1999.90;999.90;;;16.30;99.90;;;;;;5033121;28;20195;-76
2023/08/27 03:29:07;;;;;;;1999.90;999.90;;;16.30;99.90;;;;;;5032965;28;20287;-77
2023/08/27 03:31:32;;;;;;;1999.90;999.90;;;16.30;99.90;;;;;;5032753;28;20548;-77
2023/08/27 03:33:58;;;;;;;1999.90;999.90;;;16.40;99.90;;;;;;5032789;28;20258;-77
2023/08/27 03:36:24;;;;;;;1999.90;999.90;;;16.30;99.90;;;;;;5033044;28;20174;-77
2023/08/27 03:38:49;;;;;;;1999.90;999.90;;;16.30;99.90;;;;;;5033016;28;20278;-77
2023/08/27 03:41:15;;;;;;;1999.90;999.90;;;16.30;99.90;;;;;;5032921;28;20250;-77
2023/08/27 03:43:40;;;;;;;1999.90;999.90;;;16.30;99.90;;;;;;5033157;28;20180;-77
2023/08/27 03:46:06;;;;;;;1999.90;999.90;;;16.30;99.90;;;;;;5033441;28;20168;-76
2023/08/27 03:48:31;;;;;;;1999.90;999.90;;;16.30;99.90;;;;;;5033198;28;20304;-77
2023/08/27 03:50:57;;;;;;;1999.90;999.90;;;16.30;99.90;;;;;;5033370;28;20203;-77
2023/08/27 03:53:23;;;;;;;1999.90;999.90;;;16.20;99.90;;;;;;5032716;28;20199;-77
2023/08/27 03:55:48;;;;;;;1999.90;999.90;;;16.20;99.90;;;;;;5032279;28;20439;-75
2023/08/27 03:58:14;;;;;;;1999.90;999.90;;;16.10;99.90;;;;;;5032344;28;20182;-77
2023/08/27 04:00:40;;;;;;;1999.90;999.90;;;16.10;99.90;;;;;;5032335;28;20172;-77
2023/08/27 04:03:06;;;;;;;1999.90;999.90;;;16.10;99.90;;;;;;5032112;28;20455;-77
2023/08/27 04:05:31;;;;;;;1999.90;999.90;;;16.20;99.90;;;;;;5032306;28;20174;-77
2023/08/27 04:07:57;;;;;;;1999.90;999.90;;;16.20;99.90;;;;;;5032884;28;20177;-77
2023/08/27 04:10:23;;;;;;;1999.90;999.90;;;16.10;99.90;;;;;;5032530;28;20175;-77
2023/08/27 04:12:49;;;;;;;1999.90;999.90;;;16.10;99.90;;;;;;5032170;28;20497;-77
2023/08/27 04:15:15;;;;;;;1999.90;999.90;;;16.10;99.90;;;;;;5032390;28;20792;-77
2023/08/27 04:17:40;;;;;;;1999.90;999.90;;;16.10;99.90;;;;;;5032285;28;20251;-77
2023/08/27 04:20:06;;;;;;;1999.90;999.90;;;16.10;99.90;;;;;;5032638;28;20852;-77
2023/08/27 04:22:32;;;;;;;1999.90;999.90;;;16.10;99.90;;;;;;5032596;28;20177;-77
2023/08/27 04:24:57;;;;;;;1999.90;999.90;;;16.10;99.90;;;;;;5032923;28;20448;-77
2023/08/27 04:27:23;;;;;;;1999.90;999.90;;;16.10;99.90;;;;;;5032821;28;20241;-77
2023/08/27 04:29:49;;;;;;;1999.90;999.90;;;16.20;99.90;;;;;;5035805;28;20214;-77
2023/08/27 04:32:14;;;;;;;1999.90;999.90;;;16.20;99.90;;;;;;5036694;28;20190;-77
2023/08/27 04:34:40;;;;;;;1999.90;999.90;;;16.20;99.90;;;;;;5037446;28;20179;-77
2023/08/27 04:37:05;;;;;;;1999.90;999.90;;;16.30;99.90;;;;;;5036341;28;20167;-76
2023/08/27 04:39:31;;;;;;;1999.90;999.90;;;16.30;99.90;;;;;;5036456;28;20190;-77
2023/08/27 04:41:58;;;;;;;1999.90;999.90;;;16.30;99.90;;;;;;5040382;28;20182;-76
2023/08/27 04:44:25;;;;;;;1999.90;999.90;;;16.30;99.90;;;;;;5038314;28;20174;-76
2023/08/27 04:46:52;;;;;;;1999.90;999.90;;;16.20;99.90;;;;;;5035727;28;20414;-76
2023/08/27 04:49:17;;;;;;;1999.90;999.90;;;16.10;99.90;;;;;;5035608;28;20440;-76
2023/08/27 04:51:43;;;;;;;1999.90;999.90;;;16.00;99.90;;;;;;5035352;28;20459;-77
2023/08/27 04:54:08;;;;;;;1999.90;999.90;;;16.00;99.90;;;;;;5035682;28;20177;-76
2023/08/27 04:56:34;;;;;;;1999.90;999.90;;;15.90;99.90;;;;;;5035617;28;20255;-75
2023/08/27 04:59:00;;;;;;;1999.90;999.90;;;15.80;99.90;;;;;;5035965;28;20588;-76
2023/08/27 05:01:25;;;;;;;1999.90;999.90;;;15.80;99.90;;;;;;5037691;28;20232;-76
2023/08/27 05:03:51;;;;;;;1999.90;999.90;;;15.80;99.90;;;;;;5038370;28;20178;-76
2023/08/27 05:06:16;;;;;;;1999.90;999.90;;;15.80;99.90;;;;;;5038730;28;20632;-75
2023/08/27 05:08:42;;;;;;;1999.90;999.90;;;15.80;99.90;;;;;;5041217;28;20573;-76
2023/08/27 05:11:08;;;;;;;1999.90;999.90;;;15.80;99.90;;;;;;5045254;28;20175;-76
2023/08/27 05:13:34;;;;;;;1999.90;999.90;;;15.90;99.90;;;;;;5044661;28;20204;-76
2023/08/27 05:16:00;;;;;;;1999.90;999.90;;;15.90;99.90;;;;;;5043104;28;20440;-76
2023/08/27 05:18:25;;;;;;;1999.90;999.90;;;15.90;99.90;;;;;;5048274;28;20188;-76
2023/08/27 05:20:51;;;;;;;1999.90;999.90;;;15.80;99.90;;;;;;5040435;28;20164;-73
2023/08/27 05:23:17;;;;;;;1999.90;999.90;;;15.70;99.90;;;;;;5038441;28;20794;-76
2023/08/27 05:25:44;;;;;;;1999.90;999.90;;;15.60;99.90;;;;;;5038267;28;20644;-76
2023/08/27 05:28:09;;;;;;;1999.90;999.90;;;15.70;99.90;;;;;;5039640;28;20419;-76
2023/08/27 05:30:35;;;;;;;1999.90;999.90;;;15.60;99.90;;;;;;5041955;28;20436;-74
2023/08/27 05:33:01;;;;;;;1999.90;999.90;;;15.60;99.90;;;;;;5044299;28;20231;-76
2023/08/27 05:35:26;;;;;;;1999.90;999.90;;;15.70;99.90;;;;;;5044690;28;20169;-76
2023/08/27 05:37:52;;;;;;;1999.90;999.90;;;15.80;99.90;;;;;;5046732;28;20172;-76
2023/08/27 05:40:17;;;;;;;1999.90;999.90;;;15.70;99.90;;;;;;5041855;28;20168;-75
2023/08/27 05:42:43;;;;;;;1999.90;999.90;;;15.80;99.90;;;;;;5043837;28;20697;-76
2023/08/27 05:45:09;;;;;;;1999.90;999.90;;;15.90;99.90;;;;;;5043619;28;20181;-76
2023/08/27 05:47:35;;;;;;;1999.90;999.90;;;15.90;99.90;;;;;;5044242;28;20197;-77
2023/08/27 05:50:00;;;;;;;1999.90;999.90;;;16.00;99.90;;;;;;5044227;28;20466;-77
2023/08/27 05:52:26;;;;;;;1999.90;999.90;;;16.10;99.90;;;;;;5043890;28;20194;-76
2023/08/27 05:54:51;;;;;;;1999.90;999.90;;;16.00;99.90;;;;;;5044120;28;20174;-76
2023/08/27 05:57:17;;;;;;;1999.90;999.90;;;16.10;99.90;;;;;;5043377;28;20173;-77
2023/08/27 05:59:43;;;;;;;1999.90;999.90;;;16.10;99.90;;;;;;5048244;28;20251;-77
2023/08/27 06:02:10;;;;;;;1999.90;999.90;;;16.10;99.90;;;;;;5034764;28;20183;-77
2023/08/27 06:04:35;;;;;;;1999.90;999.90;;;16.10;99.90;;;;;;5034745;28;20172;-77
2023/08/27 06:07:01;;;;;;;1999.90;999.90;;;16.10;99.90;;;;;;5035132;28;20418;-78
2023/08/27 06:09:27;;;;;;;1999.90;999.90;;;16.10;99.90;;;;;;5034810;28;20644;-77
2023/08/27 06:11:52;;;;;;;1999.90;999.90;;;16.10;99.90;;;;;;5033942;28;20202;-77
2023/08/27 06:14:18;;;;;;;1999.90;999.90;;;16.10;99.90;;;;;;5034593;28;20715;-77
2023/08/27 06:16:43;;;;;;;1999.90;999.90;;;16.10;99.90;;;;;;5034864;28;20229;-77
2023/08/27 06:19:09;;;;;;;1999.90;999.90;;;16.10;99.90;;;;;;5034125;28;20188;-77
2023/08/27 06:21:35;;;;;;;1999.90;999.90;;;16.20;99.90;;;;;;5033900;28;20249;-77
2023/08/27 06:24:00;;;;;;;1999.90;999.90;;;16.20;99.90;;;;;;5034102;28;20816;-77
2023/08/27 06:26:27;;;;;;;1999.90;999.90;;;16.30;99.90;;;;;;5034242;28;20170;-77
2023/08/27 06:28:52;;;;;;;1999.90;999.90;;;16.30;99.90;;;;;;5033639;28;20593;-77
2023/08/27 06:31:18;;;;;;;1999.90;999.90;;;16.40;99.90;;;;;;5033544;28;20410;-77
2023/08/27 06:33:43;;;;;;;1999.90;999.90;;;16.50;99.90;;;;;;5033892;28;20219;-77
2023/08/27 06:36:09;;;;;;;1999.90;999.90;;;16.50;99.90;;;;;;5033834;28;20281;-77
2023/08/27 06:38:34;;;;;;;1999.90;999.90;;;16.60;99.90;;;;;;5033801;28;20184;-77
2023/08/27 06:41:00;;;;;;;1999.90;999.90;;;16.70;99.90;;;;;;5033712;28;20215;-77
2023/08/27 06:43:26;;;;;;;1999.90;999.90;;;16.80;99.90;;;;;;5033716;28;20177;-77
2023/08/27 06:45:51;;;;;;;1999.90;999.90;;;16.90;99.90;;;;;;5033749;28;20534;-77
2023/08/27 06:48:17;;;;;;;1999.90;999.90;;;16.90;99.90;;;;;;5034441;28;20682;-76
2023/08/27 06:50:43;;;;;;;1999.90;999.90;;;17.00;99.90;;;;;;5034585;28;20168;-77
2023/08/27 06:53:10;;;;;;;1999.90;999.90;;;17.10;99.90;;;;;;5033339;28;20200;-77
2023/08/27 06:55:36;;;;;;;1999.90;999.90;;;17.20;99.90;;;;;;5033595;28;20399;-77
2023/08/27 06:58:02;;;;;;;1999.90;999.90;;;17.30;99.90;;;;;;5033301;28;20465;-77
2023/08/27 07:00:27;;;;;;;1999.90;999.90;;;17.50;99.90;;;;;;5033772;28;20175;-77
2023/08/27 07:02:53;;;;;;;1999.90;999.90;;;17.60;99.90;;;;;;5033416;28;20173;-77
2023/08/27 07:05:19;;;;;;;1999.90;999.90;;;17.70;99.90;;;;;;5033192;28;20174;-77
2023/08/27 07:07:45;;;;;;;1999.90;999.90;;;17.70;99.90;;;;;;5032681;28;20510;-77
2023/08/27 07:10:12;;;;;;;1999.90;999.90;;;17.80;99.90;;;;;;5032564;28;20449;-77
2023/08/27 07:12:37;;;;;;;1999.90;999.90;;;17.80;99.90;;;;;;5032900;28;20479;-77
2023/08/27 07:15:04;;;;;;;1999.90;999.90;;;17.70;99.90;;;;;;5034397;28;20470;-77
2023/08/27 07:17:32;;;;;;;1999.90;999.90;;;17.70;99.90;;;;;;5033095;28;20186;-76
2023/08/27 07:20:03;;;;;;;1999.90;999.90;;;17.70;99.90;;;;;;5033023;28;20507;-77
2023/08/27 07:22:29;;;;;;;1999.90;999.90;;;17.80;99.90;;;;;;5032889;28;20422;-77
2023/08/27 07:24:55;;;;;;;1999.90;999.90;;;17.80;99.90;;;;;;5033488;28;20413;-76
2023/08/27 07:27:21;;;;;;;1999.90;999.90;;;17.80;99.90;;;;;;5033733;28;20167;-77
2023/08/27 07:29:47;;;;;;;1999.90;999.90;;;17.80;99.90;;;;;;5033462;28;20446;-76
2023/08/27 07:32:12;;;;;;;1999.90;999.90;;;17.80;99.90;;;;;;5032452;28;20194;-76
2023/08/27 07:34:38;;;;;;;1999.90;999.90;;;17.70;99.90;;;;;;5033562;28;20485;-74
2023/08/27 07:37:04;;;;;;;1999.90;999.90;;;17.80;99.90;;;;;;5031330;28;20178;-75
2023/08/27 07:39:29;;;;;;;1999.90;999.90;;;17.80;99.90;;;;;;5032446;28;20607;-76
2023/08/27 07:41:55;;;;;;;1999.90;999.90;;;17.80;99.90;;;;;;5032175;28;20517;-75
2023/08/27 07:44:20;;;;;;;1999.90;999.90;;;17.70;99.90;;;;;;5032577;28;20231;-75
2023/08/27 07:46:46;;;;;;;1999.90;999.90;;;17.70;99.90;;;;;;5032389;28;20594;-74
2023/08/27 07:49:12;;;;;;;1999.90;999.90;;;17.70;99.90;;;;;;5032228;28;20749;-75
2023/08/27 07:51:37;;;;;;;1999.90;999.90;;;17.70;99.90;;;;;;5031845;28;20176;-75
2023/08/27 07:54:03;;;;;;;1999.90;999.90;;;17.70;99.90;;;;;;5032307;28;20656;-75
2023/08/27 07:56:29;;;;;;;1999.90;999.90;;;17.70;99.90;;;;;;5032179;28;20165;-75
2023/08/27 07:58:55;;;;;;;1999.90;999.90;;;17.80;99.90;;;;;;5032187;28;20193;-75
2023/08/27 08:01:21;;;;;;;1999.90;999.90;;;17.90;99.90;;;;;;5031876;28;20398;-74
2023/08/27 08:03:46;;;;;;;1999.90;999.90;;;18.00;99.90;;;;;;5031582;28;20458;-74
2023/08/27 08:06:13;;;;;;;1999.90;999.90;;;18.10;99.90;;;;;;5031393;28;20740;-76
2023/08/27 08:08:39;;;;;;;1999.90;999.90;;;18.20;99.90;;;;;;5030429;28;20450;-75
2023/08/27 08:11:05;;;;;;;1999.90;999.90;;;18.40;99.90;;;;;;5030987;28;20414;-73
2023/08/27 08:13:32;;;;;;;1999.90;999.90;;;18.30;99.90;;;;;;5022584;28;20466;-74
2023/08/27 08:15:58;;;;;;;1999.90;999.90;;;18.40;99.90;;;;;;5034924;28;20246;-75
2023/08/27 08:18:23;;;;;;;1999.90;999.90;;;18.60;99.90;;;;;;5028258;28;20443;-73
2023/08/27 08:20:53;;;;;;;1999.90;999.90;;;18.60;99.90;;;;;;5031137;28;20490;-74
2023/08/27 08:23:19;;;;;;;1999.90;999.90;;;18.70;99.90;;;;;;5029280;28;20662;-75
2023/08/27 08:25:47;;;;;;;1999.90;999.90;;;18.70;99.90;;;;;;5027778;28;20420;-74
2023/08/27 08:28:13;;;;;;;1999.90;999.90;;;18.80;99.90;;;;;;5027323;28;20255;-72
2023/08/27 08:30:45;;;;;;;1999.90;999.90;;;18.90;99.90;;;;;;5028441;28;20453;-76
2023/08/27 08:33:11;;;;;;;1999.90;999.90;;;19.00;99.90;;;;;;5027090;28;20218;-76
2023/08/27 08:35:37;;;;;;;1999.90;999.90;;;19.20;99.90;;;;;;5027401;28;20417;-76
2023/08/27 08:38:03;;;;;;;1999.90;999.90;;;19.40;99.90;;;;;;5028050;28;20559;-76
2023/08/27 08:40:29;;;;;;;1999.90;999.90;;;19.50;99.90;;;;;;5028018;28;20422;-74
2023/08/27 08:42:58;;;;;;;1999.90;999.90;;;19.60;99.90;;;;;;5026468;28;20665;-73
2023/08/27 08:45:34;;;;;;;1999.90;999.90;;;19.70;99.90;;;;;;5027897;28;20423;-76
2023/08/27 08:48:03;;;;;;;1999.90;999.90;;;20.00;99.90;;;;;;5028290;28;20493;-73
2023/08/27 08:50:32;;;;;;;1999.90;999.90;;;19.80;99.90;;;;;;5027982;28;20477;-72
2023/08/27 08:53:05;;;;;;;1999.90;999.90;;;19.90;99.90;;;;;;5027019;28;20505;-74
2023/08/27 08:55:33;;;;;;;1999.90;999.90;;;20.00;99.90;;;;;;5027387;28;20413;-74
2023/08/27 08:58:06;;;;;;;1999.90;999.90;;;20.20;99.90;;;;;;5027306;28;21050;-71
2023/08/27 09:00:33;;;;;;;1999.90;999.90;;;20.30;99.90;;;;;;5028007;28;20867;-71
2023/08/27 09:03:03;;;;;;;1999.90;999.90;;;20.30;99.90;;;;;;5027071;28;20455;-72
2023/08/27 09:05:31;;;;;;;1999.90;999.90;;;20.40;99.90;;;;;;5027277;28;20418;-74
2023/08/27 09:07:57;;;;;;;1999.90;999.90;;;20.40;99.90;;;;;;5027192;28;20387;-73
2023/08/27 09:10:24;;;;;;;1999.90;999.90;;;20.50;99.90;;;;;;5028352;28;20415;-73
2023/08/27 09:12:55;;;;;;;1999.90;999.90;;;20.40;99.90;;;;;;5026725;28;20504;-73
2023/08/27 09:15:21;;;;;;;1999.90;999.90;;;20.50;99.90;;;;;;5028810;28;20481;-73
2023/08/27 09:17:47;;;;;;;1999.90;999.90;;;20.50;99.90;;;;;;5031082;28;20418;-74
2023/08/27 09:20:13;;;;;;;1999.90;999.90;;;20.50;99.90;;;;;;5031037;28;20919;-73
2023/08/27 09:22:40;;;;;;;1999.90;999.90;;;20.50;99.90;;;;;;5030282;28;20455;-72
2023/08/27 09:25:06;;;;;;;1999.90;999.90;;;20.50;99.90;;;;;;5030966;28;20183;-74
2023/08/27 09:27:32;;;;;;;1999.90;999.90;;;20.50;99.90;;;;;;5031205;28;20407;-73
2023/08/27 09:30:00;;;;;;;1999.90;999.90;;;20.30;99.90;;;;;;5030168;28;20461;-72
2023/08/27 09:32:27;;;;;;;1999.90;999.90;;;20.20;99.90;;;;;;5030192;28;20454;-73
2023/08/27 09:35:01;;;;;;;1999.90;999.90;;;20.20;99.90;;;;;;5031089;28;20418;-73
2023/08/27 09:37:28;;;;;;;1999.90;999.90;;;20.10;99.90;;;;;;5031055;28;20404;-73
2023/08/27 09:39:54;;;;;;;1999.90;999.90;;;20.10;99.90;;;;;;5030176;28;20480;-72
2023/08/27 09:42:21;;;;;;;1999.90;999.90;;;20.00;99.90;;;;;;5030198;28;20942;-74
2023/08/27 09:44:54;;;;;;;1999.90;999.90;;;20.10;99.90;;;;;;5030920;28;20449;-73
2023/08/27 09:47:30;;;;;;;1999.90;999.90;;;20.10;99.90;;;;;;5030147;28;20476;-73
2023/08/27 09:49:56;;;;;;;1999.90;999.90;;;20.30;99.90;;;;;;5030469;28;21057;-73
2023/08/27 09:52:26;;;;;;;1999.90;999.90;;;20.40;99.90;;;;;;5029649;28;20546;-73
2023/08/27 09:54:52;;;;;;;1999.90;999.90;;;20.50;99.90;;;;;;5030059;28;20207;-73
2023/08/27 09:57:19;;;;;;;1999.90;999.90;;;20.60;99.90;;;;;;5030623;28;20920;-72
2023/08/27 09:59:44;;;;;;;1999.90;999.90;;;20.80;99.90;;;;;;5029875;28;20898;-73
2023/08/27 10:02:15;;;;;;;1999.90;999.90;;;20.90;99.90;;;;;;5009862;28;20416;-74
2023/08/27 10:04:56;;;;;;;1999.90;999.90;;;21.00;99.90;;;;;;5010870;28;20423;-74
2023/08/27 10:07:23;;;;;;;1999.90;999.90;;;21.20;99.90;;;;;;5010165;28;20551;-75
2023/08/27 10:09:53;;;;;;;1999.90;999.90;;;21.40;99.90;;;;;;5010585;28;20462;-74
2023/08/27 10:12:22;;;;;;;1999.90;999.90;;;21.60;99.90;;;;;;5028879;28;20419;-74
2023/08/27 10:14:48;;;;;;;1999.90;999.90;;;21.70;99.90;;;;;;5029570;28;20401;-73
2023/08/27 10:17:15;;;;;;;1999.90;999.90;;;21.80;99.90;;;;;;5030059;28;20899;-74
2023/08/27 10:19:41;;;;;;;1999.90;999.90;;;21.60;99.90;;;;;;5030251;28;20461;-76
2023/08/27 10:22:07;;;;;;;1999.90;999.90;;;21.50;99.90;;;;;;5029153;28;20945;-74
2023/08/27 10:24:33;;;;;;;1999.90;999.90;;;21.30;99.90;;;;;;5029962;28;20419;-74
2023/08/27 10:27:00;;;;;;;1999.90;999.90;;;21.40;99.90;;;;;;5029507;28;20211;-73
2023/08/27 10:29:27;;;;;;;1999.90;999.90;;;21.30;99.90;;;;;;5029276;28;20458;-73
2023/08/27 10:31:53;;;;;;;1999.90;999.90;;;21.50;99.90;;;;;;5029502;28;20473;-74
2023/08/27 10:34:22;;;;;;;1999.90;999.90;;;21.70;99.90;;;;;;5029594;28;20491;-73
2023/08/27 10:36:51;;;;;;;1999.90;999.90;;;21.80;99.90;;;;;;5029218;28;21016;-74
2023/08/27 10:39:20;;;;;;;1999.90;999.90;;;22.10;99.90;;;;;;5029077;28;20428;-78
2023/08/27 10:41:46;;;;;;;1999.90;999.90;;;22.30;99.90;;;;;;5029675;28;20762;-74
2023/08/27 10:44:22;;;;;;;1999.90;999.90;;;22.50;99.90;;;;;;5029150;28;20436;-74
2023/08/27 10:47:10;;;;;;;1999.90;999.90;;;22.40;99.90;;;;;;5028853;28;20191;-74
2023/08/27 10:49:37;;;;;;;1999.90;999.90;;;22.00;99.90;;;;;;5029685;28;20483;-74
2023/08/27 10:52:18;;;;;;;1999.90;999.90;;;21.60;99.90;;;;;;5028650;28;20445;-74
2023/08/27 10:54:46;;;;;;;1999.90;999.90;;;21.20;99.90;;;;;;5028078;28;20417;-74
2023/08/27 10:57:24;;;;;;;1999.90;999.90;;;20.90;99.90;;;;;;5028630;28;20422;-74
2023/08/27 10:59:52;;;;;;;1999.90;999.90;;;20.80;99.90;;;;;;5027525;28;20454;-74
2023/08/27 11:02:17;;;;;;;1999.90;999.90;;;21.00;99.90;;;;;;5028782;28;20791;-74
2023/08/27 11:04:49;;;;;;;1999.90;999.90;;;21.20;99.90;;;;;;5028408;28;20415;-74
2023/08/27 11:07:17;;;;;;;1999.90;999.90;;;21.10;99.90;;;;;;5029632;28;20207;-74
2023/08/27 11:09:53;;;;;;;1999.90;999.90;;;21.10;99.90;;;;;;5028776;28;20432;-74
2023/08/27 11:12:27;;;;;;;1999.90;999.90;;;21.40;99.90;;;;;;5028418;28;20976;-74
2023/08/27 11:14:54;;;;;;;1999.90;999.90;;;21.50;99.90;;;;;;5028571;28;20420;-74
2023/08/27 11:17:25;;;;;;;1999.90;999.90;;;21.60;99.90;;;;;;5029349;28;20933;-74
2023/08/27 11:19:51;;;;;;;1999.90;999.90;;;21.80;99.90;;;;;;5029307;28;20438;-74
2023/08/27 11:22:19;;;;;;;1999.90;999.90;;;22.10;99.90;;;;;;5028273;28;20422;-74
2023/08/27 11:24:57;;;;;;;1999.90;999.90;;;22.30;99.90;;;;;;5028609;28;20272;-74
2023/08/27 11:27:25;;;;;;;1999.90;999.90;;;22.30;99.90;;;;;;5028586;28;20881;-74
2023/08/27 11:29:52;;;;;;;1999.90;999.90;;;22.30;99.90;;;;;;5028979;28;20455;-74
2023/08/27 11:32:22;;;;;;;1999.90;999.90;;;22.10;99.90;;;;;;5028137;28;20697;-74
2023/08/27 11:34:52;;;;;;;1999.90;999.90;;;22.30;99.90;;;;;;5027283;28;20903;-74
2023/08/27 11:37:20;;;;;;;1999.90;999.90;;;22.50;99.90;;;;;;5026885;28;20426;-74
2023/08/27 11:39:46;;;;;;;1999.90;999.90;;;22.60;99.90;;;;;;5028295;28;20432;-74
2023/08/27 11:42:16;;;;;;;1999.90;999.90;;;22.40;99.90;;;;;;5028140;28;20393;-74
2023/08/27 11:44:53;;;;;;;1999.90;999.90;;;22.00;99.90;;;;;;5028214;28;20418;-75
2023/08/27 11:47:23;;;;;;;1999.90;999.90;;;21.80;99.90;;;;;;5029384;28;20433;-75
2023/08/27 11:49:56;;;;;;;1999.90;999.90;;;21.70;99.90;;;;;;5029201;28;20451;-75
2023/08/27 11:52:22;;;;;;;1999.90;999.90;;;21.70;99.90;;;;;;5029565;28;20461;-73
2023/08/27 11:54:48;;;;;;;1999.90;999.90;;;21.60;99.90;;;;;;5029717;28;20422;-75
2023/08/27 11:57:15;;;;;;;1999.90;999.90;;;21.60;99.90;;;;;;5029487;28;20423;-76